Airfield :
LOGIN :

Register | Disclaimer

   EN    FR    IT 

 










Legend :    VFR   Marginal VFR   IFR   Intensive IFR   Very Intensive IFR
Visi :
Ceiling :
>= 8 km
>= 3000ft
5 to 8 km
1000 to 3000 ft
1500m to 5 km
500 to 1000 ft
800 to 1500m
200 to 500 ft
< 800m
< 200 ft
Symbols :   Thunderstorms  Fog  Heavy snow  Heavy precipitations  Wind > 20 kt
SIGMETs :     Misc.  Thunderstorms  Icing  Turbulence  Mountain Waves  Volcanic Ashes






- Airport Elevation : 125 ft
- IATA code : MGL


EDLN - Mönchengladbach

CURRENT METAR :
  • 301350Z 34005KT 9999 OVC009 07/05 Q1024

EXPIRED METARs :
  • 301320Z 34005KT 8000 OVC008 07/05 Q1024
  • 301250Z 34005KT 310V010 9999 OVC009 07/05 Q1024
  • 301220Z 33004KT 6000 SCT008 OVC010 07/05 Q1024
  • 301150Z 34005KT 5000 BR OVC008 07/05 Q1024
  • 301120Z 34004KT 5000 BR BKN007 OVC030 06/05 Q1024

TAF TAF EDLN
Valid from the 30 at 12:00 until the 30 at 21:00 UTC


301124Z 3012/3021 35004KT 6000 BKN015
TEMPO 3012/3021 2000 BR BKN008



MET'MAP, your aeronautical weather chart ! - Copyright ORBIFLY December 2007 - Disclaimer

ORBIFLY MET'MAP TEAM :

Programming & Development : Alexandra Zaïnal
Original concept : Baudouin d'Aumeries
Technical & hardware support : Manuel Goepfert
Assistance : Marc-Olivier Méhu




SOURCES & CREDITS :

   NOAA